sensor_id;sensor_type;location;lat;lon;timestamp;P1;durP1;ratioP1;P2;durP2;ratioP2
15297;SDS011;7750;48.796;9.026;2023-11-21T00:03:23;4.60;;;1.83;;
15297;SDS011;7750;48.796;9.026;2023-11-21T00:08:24;4.17;;;1.60;;
15297;SDS011;7750;48.796;9.026;2023-11-21T00:13:27;3.50;;;1.77;;
15297;SDS011;7750;48.796;9.026;2023-11-21T00:18:28;3.30;;;1.73;;
15297;SDS011;7750;48.796;9.026;2023-11-21T00:23:28;3.70;;;1.50;;
15297;SDS011;7750;48.796;9.026;2023-11-21T00:28:29;4.17;;;1.97;;
15297;SDS011;7750;48.796;9.026;2023-11-21T00:33:30;3.47;;;1.90;;
15297;SDS011;7750;48.796;9.026;2023-11-21T00:38:30;4.07;;;2.20;;
15297;SDS011;7750;48.796;9.026;2023-11-21T00:43:31;4.83;;;1.90;;
15297;SDS011;7750;48.796;9.026;2023-11-21T00:48:33;5.13;;;2.30;;
15297;SDS011;7750;48.796;9.026;2023-11-21T00:53:34;5.87;;;2.40;;
15297;SDS011;7750;48.796;9.026;2023-11-21T00:58:34;3.27;;;1.60;;
15297;SDS011;7750;48.796;9.026;2023-11-21T01:03:35;4.20;;;1.90;;
15297;SDS011;7750;48.796;9.026;2023-11-21T01:08:36;2.77;;;2.07;;
15297;SDS011;7750;48.796;9.026;2023-11-21T01:13:36;4.40;;;1.87;;
15297;SDS011;7750;48.796;9.026;2023-11-21T01:18:37;3.43;;;1.87;;
15297;SDS011;7750;48.796;9.026;2023-11-21T01:23:38;4.30;;;2.27;;
15297;SDS011;7750;48.796;9.026;2023-11-21T01:28:38;2.60;;;1.30;;
15297;SDS011;7750;48.796;9.026;2023-11-21T01:33:39;4.47;;;1.50;;
15297;SDS011;7750;48.796;9.026;2023-11-21T01:38:40;2.80;;;1.47;;
15297;SDS011;7750;48.796;9.026;2023-11-21T01:43:41;2.47;;;1.47;;
15297;SDS011;7750;48.796;9.026;2023-11-21T01:48:41;4.03;;;1.80;;
15297;SDS011;7750;48.796;9.026;2023-11-21T01:53:42;4.30;;;1.70;;
15297;SDS011;7750;48.796;9.026;2023-11-21T01:58:46;4.03;;;1.63;;
15297;SDS011;7750;48.796;9.026;2023-11-21T02:03:47;2.90;;;1.73;;
15297;SDS011;7750;48.796;9.026;2023-11-21T02:08:48;3.33;;;1.30;;
15297;SDS011;7750;48.796;9.026;2023-11-21T02:13:49;3.90;;;1.60;;
15297;SDS011;7750;48.796;9.026;2023-11-21T02:18:50;3.63;;;1.60;;
15297;SDS011;7750;48.796;9.026;2023-11-21T02:23:52;3.27;;;1.77;;
15297;SDS011;7750;48.796;9.026;2023-11-21T02:28:52;3.83;;;1.90;;
15297;SDS011;7750;48.796;9.026;2023-11-21T02:33:53;2.77;;;1.60;;
15297;SDS011;7750;48.796;9.026;2023-11-21T02:38:54;4.20;;;1.67;;
15297;SDS011;7750;48.796;9.026;2023-11-21T02:43:54;3.20;;;1.60;;
15297;SDS011;7750;48.796;9.026;2023-11-21T02:48:55;2.97;;;1.47;;
15297;SDS011;7750;48.796;9.026;2023-11-21T02:53:56;3.63;;;2.03;;
15297;SDS011;7750;48.796;9.026;2023-11-21T02:58:59;2.77;;;1.50;;
15297;SDS011;7750;48.796;9.026;2023-11-21T03:04:00;2.47;;;1.43;;
15297;SDS011;7750;48.796;9.026;2023-11-21T03:09:01;3.30;;;1.60;;
15297;SDS011;7750;48.796;9.026;2023-11-21T03:14:02;8.73;;;1.60;;
15297;SDS011;7750;48.796;9.026;2023-11-21T03:19:03;2.77;;;1.80;;
15297;SDS011;7750;48.796;9.026;2023-11-21T03:24:05;8.20;;;1.50;;
15297;SDS011;7750;48.796;9.026;2023-11-21T03:29:07;2.83;;;1.47;;
15297;SDS011;7750;48.796;9.026;2023-11-21T03:34:10;3.20;;;1.33;;
15297;SDS011;7750;48.796;9.026;2023-11-21T03:39:15;3.63;;;1.63;;
15297;SDS011;7750;48.796;9.026;2023-11-21T03:44:16;3.73;;;1.70;;
15297;SDS011;7750;48.796;9.026;2023-11-21T03:49:17;3.80;;;1.50;;
15297;SDS011;7750;48.796;9.026;2023-11-21T03:54:18;3.13;;;1.57;;
15297;SDS011;7750;48.796;9.026;2023-11-21T03:59:18;6.07;;;2.63;;
15297;SDS011;7750;48.796;9.026;2023-11-21T04:04:19;2.20;;;1.47;;
15297;SDS011;7750;48.796;9.026;2023-11-21T04:09:20;2.83;;;1.50;;
15297;SDS011;7750;48.796;9.026;2023-11-21T04:14:21;2.27;;;1.50;;
15297;SDS011;7750;48.796;9.026;2023-11-21T04:19:22;2.03;;;1.30;;
15297;SDS011;7750;48.796;9.026;2023-11-21T04:24:23;2.60;;;1.37;;
15297;SDS011;7750;48.796;9.026;2023-11-21T04:29:23;5.87;;;1.57;;
15297;SDS011;7750;48.796;9.026;2023-11-21T04:34:24;2.50;;;1.23;;
15297;SDS011;7750;48.796;9.026;2023-11-21T04:39:25;3.77;;;1.90;;
15297;SDS011;7750;48.796;9.026;2023-11-21T04:44:26;2.30;;;1.53;;
15297;SDS011;7750;48.796;9.026;2023-11-21T04:49:27;2.93;;;1.40;;
15297;SDS011;7750;48.796;9.026;2023-11-21T04:54:27;2.17;;;1.50;;
15297;SDS011;7750;48.796;9.026;2023-11-21T04:59:28;4.40;;;1.40;;
15297;SDS011;7750;48.796;9.026;2023-11-21T05:04:28;2.57;;;1.60;;
15297;SDS011;7750;48.796;9.026;2023-11-21T05:09:29;3.53;;;1.40;;
15297;SDS011;7750;48.796;9.026;2023-11-21T05:14:32;3.00;;;1.73;;
15297;SDS011;7750;48.796;9.026;2023-11-21T05:19:33;2.77;;;1.63;;
15297;SDS011;7750;48.796;9.026;2023-11-21T05:24:35;3.23;;;1.20;;
15297;SDS011;7750;48.796;9.026;2023-11-21T05:29:36;1.93;;;1.53;;
15297;SDS011;7750;48.796;9.026;2023-11-21T05:34:37;3.53;;;1.53;;
15297;SDS011;7750;48.796;9.026;2023-11-21T05:39:43;1.90;;;1.50;;
15297;SDS011;7750;48.796;9.026;2023-11-21T05:44:44;2.30;;;1.50;;
15297;SDS011;7750;48.796;9.026;2023-11-21T05:49:45;4.63;;;1.80;;
15297;SDS011;7750;48.796;9.026;2023-11-21T05:54:50;1.90;;;1.40;;
15297;SDS011;7750;48.796;9.026;2023-11-21T05:59:50;2.17;;;1.37;;
15297;SDS011;7750;48.796;9.026;2023-11-21T06:04:51;2.00;;;1.40;;
15297;SDS011;7750;48.796;9.026;2023-11-21T06:09:52;3.33;;;1.73;;
15297;SDS011;7750;48.796;9.026;2023-11-21T06:14:52;3.03;;;1.67;;
15297;SDS011;7750;48.796;9.026;2023-11-21T06:19:53;2.33;;;1.80;;
15297;SDS011;7750;48.796;9.026;2023-11-21T06:24:54;3.57;;;2.00;;
15297;SDS011;7750;48.796;9.026;2023-11-21T06:29:54;2.47;;;1.67;;
15297;SDS011;7750;48.796;9.026;2023-11-21T06:34:55;2.23;;;1.67;;
15297;SDS011;7750;48.796;9.026;2023-11-21T06:45:02;2.23;;;1.60;;
15297;SDS011;7750;48.796;9.026;2023-11-21T06:50:05;3.20;;;2.03;;
15297;SDS011;7750;48.796;9.026;2023-11-21T06:55:07;2.80;;;2.00;;
15297;SDS011;7750;48.796;9.026;2023-11-21T07:00:10;2.63;;;1.70;;
15297;SDS011;7750;48.796;9.026;2023-11-21T07:05:11;3.03;;;1.47;;
15297;SDS011;7750;48.796;9.026;2023-11-21T07:10:14;2.60;;;1.50;;
15297;SDS011;7750;48.796;9.026;2023-11-21T07:15:14;2.47;;;1.60;;
15297;SDS011;7750;48.796;9.026;2023-11-21T07:20:15;3.87;;;1.70;;
15297;SDS011;7750;48.796;9.026;2023-11-21T07:25:17;2.30;;;1.70;;
15297;SDS011;7750;48.796;9.026;2023-11-21T07:30:17;2.67;;;1.43;;
15297;SDS011;7750;48.796;9.026;2023-11-21T07:35:18;2.77;;;1.43;;
15297;SDS011;7750;48.796;9.026;2023-11-21T07:40:18;2.63;;;1.37;;
15297;SDS011;7750;48.796;9.026;2023-11-21T07:45:19;3.20;;;1.70;;
15297;SDS011;7750;48.796;9.026;2023-11-21T07:50:22;1.40;;;1.10;;
15297;SDS011;7750;48.796;9.026;2023-11-21T07:55:23;4.60;;;1.90;;
15297;SDS011;7750;48.796;9.026;2023-11-21T08:00:24;2.20;;;1.43;;
15297;SDS011;7750;48.796;9.026;2023-11-21T08:05:30;2.43;;;1.83;;
15297;SDS011;7750;48.796;9.026;2023-11-21T08:10:30;3.20;;;2.10;;
15297;SDS011;7750;48.796;9.026;2023-11-21T08:15:31;1.90;;;1.60;;
15297;SDS011;7750;48.796;9.026;2023-11-21T08:20:32;5.77;;;1.70;;
15297;SDS011;7750;48.796;9.026;2023-11-21T08:25:32;2.10;;;1.83;;
15297;SDS011;7750;48.796;9.026;2023-11-21T08:30:34;2.73;;;2.00;;
15297;SDS011;7750;48.796;9.026;2023-11-21T08:35:35;3.03;;;1.80;;
15297;SDS011;7750;48.796;9.026;2023-11-21T08:40:38;2.83;;;1.90;;
15297;SDS011;7750;48.796;9.026;2023-11-21T08:45:41;2.03;;;1.67;;
15297;SDS011;7750;48.796;9.026;2023-11-21T08:50:41;2.03;;;1.80;;
15297;SDS011;7750;48.796;9.026;2023-11-21T08:55:42;4.80;;;2.00;;
15297;SDS011;7750;48.796;9.026;2023-11-21T09:00:44;2.90;;;2.07;;
15297;SDS011;7750;48.796;9.026;2023-11-21T09:05:46;4.20;;;1.73;;
15297;SDS011;7750;48.796;9.026;2023-11-21T09:10:46;3.77;;;1.87;;
15297;SDS011;7750;48.796;9.026;2023-11-21T09:15:47;3.10;;;1.80;;
15297;SDS011;7750;48.796;9.026;2023-11-21T09:20:49;3.50;;;1.90;;
15297;SDS011;7750;48.796;9.026;2023-11-21T09:25:50;4.23;;;1.43;;
15297;SDS011;7750;48.796;9.026;2023-11-21T09:30:51;3.13;;;1.40;;
15297;SDS011;7750;48.796;9.026;2023-11-21T09:35:52;1.83;;;1.50;;
15297;SDS011;7750;48.796;9.026;2023-11-21T09:40:54;1.90;;;1.43;;
15297;SDS011;7750;48.796;9.026;2023-11-21T09:45:56;2.97;;;2.33;;
15297;SDS011;7750;48.796;9.026;2023-11-21T09:51:02;9.83;;;2.33;;
15297;SDS011;7750;48.796;9.026;2023-11-21T09:56:03;2.50;;;2.00;;
15297;SDS011;7750;48.796;9.026;2023-11-21T10:01:05;3.73;;;2.20;;
15297;SDS011;7750;48.796;9.026;2023-11-21T10:06:07;4.70;;;2.17;;
15297;SDS011;7750;48.796;9.026;2023-11-21T10:11:09;2.87;;;1.67;;
15297;SDS011;7750;48.796;9.026;2023-11-21T10:16:14;2.90;;;2.00;;
15297;SDS011;7750;48.796;9.026;2023-11-21T10:21:21;2.50;;;1.90;;
15297;SDS011;7750;48.796;9.026;2023-11-21T10:26:21;9.73;;;2.20;;
15297;SDS011;7750;48.796;9.026;2023-11-21T10:31:24;2.90;;;2.07;;
15297;SDS011;7750;48.796;9.026;2023-11-21T10:36:28;4.17;;;2.57;;
15297;SDS011;7750;48.796;9.026;2023-11-21T10:41:29;4.63;;;2.70;;
15297;SDS011;7750;48.796;9.026;2023-11-21T10:46:29;3.27;;;2.10;;
15297;SDS011;7750;48.796;9.026;2023-11-21T10:51:30;2.80;;;2.10;;
15297;SDS011;7750;48.796;9.026;2023-11-21T10:56:31;2.73;;;1.90;;
15297;SDS011;7750;48.796;9.026;2023-11-21T11:01:35;6.13;;;2.00;;
15297;SDS011;7750;48.796;9.026;2023-11-21T11:06:36;5.30;;;2.13;;
15297;SDS011;7750;48.796;9.026;2023-11-21T11:11:42;4.00;;;2.40;;
15297;SDS011;7750;48.796;9.026;2023-11-21T11:16:44;2.73;;;1.90;;
15297;SDS011;7750;48.796;9.026;2023-11-21T11:37:39;2.00;;;1.50;;
15297;SDS011;7750;48.796;9.026;2023-11-21T11:42:55;2.50;;;2.00;;
15297;SDS011;7750;48.796;9.026;2023-11-21T11:48:00;3.07;;;1.80;;
15297;SDS011;7750;48.796;9.026;2023-11-21T11:53:11;2.07;;;1.67;;
15297;SDS011;7750;48.796;9.026;2023-11-21T11:58:13;1.70;;;1.40;;
15297;SDS011;7750;48.796;9.026;2023-11-21T12:03:14;3.00;;;2.20;;
15297;SDS011;7750;48.796;9.026;2023-11-21T12:08:15;3.20;;;2.60;;
15297;SDS011;7750;48.796;9.026;2023-11-21T12:13:16;2.77;;;2.47;;
15297;SDS011;7750;48.796;9.026;2023-11-21T12:18:17;4.03;;;3.20;;
15297;SDS011;7750;48.796;9.026;2023-11-21T12:23:17;4.67;;;3.73;;
15297;SDS011;7750;48.796;9.026;2023-11-21T12:28:18;4.70;;;4.10;;
15297;SDS011;7750;48.796;9.026;2023-11-21T12:33:18;6.10;;;3.87;;
15297;SDS011;7750;48.796;9.026;2023-11-21T12:38:19;4.43;;;3.67;;
15297;SDS011;7750;48.796;9.026;2023-11-21T12:43:20;4.90;;;4.13;;
15297;SDS011;7750;48.796;9.026;2023-11-21T12:48:20;6.30;;;4.43;;
15297;SDS011;7750;48.796;9.026;2023-11-21T12:53:24;4.63;;;4.07;;
15297;SDS011;7750;48.796;9.026;2023-11-21T12:58:25;5.83;;;4.13;;
15297;SDS011;7750;48.796;9.026;2023-11-21T13:03:26;5.07;;;4.23;;
15297;SDS011;7750;48.796;9.026;2023-11-21T13:08:29;4.63;;;4.20;;
15297;SDS011;7750;48.796;9.026;2023-11-21T13:13:32;3.60;;;3.07;;
15297;SDS011;7750;48.796;9.026;2023-11-21T13:18:33;2.93;;;2.50;;
15297;SDS011;7750;48.796;9.026;2023-11-21T13:23:34;2.80;;;2.00;;
15297;SDS011;7750;48.796;9.026;2023-11-21T13:28:38;1.80;;;1.50;;
15297;SDS011;7750;48.796;9.026;2023-11-21T13:33:41;2.67;;;1.80;;
15297;SDS011;7750;48.796;9.026;2023-11-21T13:39:01;2.27;;;1.63;;
15297;SDS011;7750;48.796;9.026;2023-11-21T13:49:21;4.10;;;2.00;;
15297;SDS011;7750;48.796;9.026;2023-11-21T13:54:22;2.90;;;2.00;;
15297;SDS011;7750;48.796;9.026;2023-11-21T13:59:25;2.70;;;1.90;;
15297;SDS011;7750;48.796;9.026;2023-11-21T14:04:30;2.53;;;1.70;;
15297;SDS011;7750;48.796;9.026;2023-11-21T14:09:30;3.00;;;2.30;;
15297;SDS011;7750;48.796;9.026;2023-11-21T14:14:43;2.50;;;2.07;;
15297;SDS011;7750;48.796;9.026;2023-11-21T14:19:45;2.23;;;1.87;;
15297;SDS011;7750;48.796;9.026;2023-11-21T14:24:45;2.33;;;2.10;;
15297;SDS011;7750;48.796;9.026;2023-11-21T14:29:46;2.93;;;2.47;;
15297;SDS011;7750;48.796;9.026;2023-11-21T14:34:48;3.27;;;2.00;;
15297;SDS011;7750;48.796;9.026;2023-11-21T14:39:50;2.80;;;2.03;;
15297;SDS011;7750;48.796;9.026;2023-11-21T14:44:50;2.73;;;2.10;;
15297;SDS011;7750;48.796;9.026;2023-11-21T14:49:52;3.77;;;1.90;;
15297;SDS011;7750;48.796;9.026;2023-11-21T14:54:52;3.43;;;2.47;;
15297;SDS011;7750;48.796;9.026;2023-11-21T15:00:13;2.90;;;1.70;;
15297;SDS011;7750;48.796;9.026;2023-11-21T15:05:33;2.40;;;2.20;;
15297;SDS011;7750;48.796;9.026;2023-11-21T15:10:35;1.70;;;1.40;;
15297;SDS011;7750;48.796;9.026;2023-11-21T15:15:46;3.20;;;2.00;;
15297;SDS011;7750;48.796;9.026;2023-11-21T15:20:47;2.47;;;2.27;;
15297;SDS011;7750;48.796;9.026;2023-11-21T15:25:47;4.07;;;3.10;;
15297;SDS011;7750;48.796;9.026;2023-11-21T15:30:48;3.70;;;2.80;;
15297;SDS011;7750;48.796;9.026;2023-11-21T15:35:51;3.07;;;2.73;;
15297;SDS011;7750;48.796;9.026;2023-11-21T15:40:51;3.50;;;2.90;;
15297;SDS011;7750;48.796;9.026;2023-11-21T15:45:52;3.07;;;2.50;;
15297;SDS011;7750;48.796;9.026;2023-11-21T15:50:53;4.50;;;3.30;;
15297;SDS011;7750;48.796;9.026;2023-11-21T15:55:57;4.67;;;3.97;;
15297;SDS011;7750;48.796;9.026;2023-11-21T16:00:58;4.87;;;4.20;;
15297;SDS011;7750;48.796;9.026;2023-11-21T16:05:58;5.40;;;4.77;;
15297;SDS011;7750;48.796;9.026;2023-11-21T16:10:59;7.20;;;5.13;;
15297;SDS011;7750;48.796;9.026;2023-11-21T16:16:00;6.57;;;5.30;;
15297;SDS011;7750;48.796;9.026;2023-11-21T16:21:02;5.37;;;4.50;;
15297;SDS011;7750;48.796;9.026;2023-11-21T16:26:03;4.83;;;4.37;;
15297;SDS011;7750;48.796;9.026;2023-11-21T16:31:05;8.77;;;5.00;;
15297;SDS011;7750;48.796;9.026;2023-11-21T16:36:05;8.27;;;4.90;;
15297;SDS011;7750;48.796;9.026;2023-11-21T16:41:06;6.50;;;5.23;;
15297;SDS011;7750;48.796;9.026;2023-11-21T16:46:09;9.00;;;6.30;;
15297;SDS011;7750;48.796;9.026;2023-11-21T16:51:16;6.20;;;5.43;;
15297;SDS011;7750;48.796;9.026;2023-11-21T16:56:18;6.27;;;5.67;;
15297;SDS011;7750;48.796;9.026;2023-11-21T17:01:18;7.07;;;5.63;;
15297;SDS011;7750;48.796;9.026;2023-11-21T17:06:19;5.77;;;4.50;;
15297;SDS011;7750;48.796;9.026;2023-11-21T17:11:23;7.07;;;5.70;;
15297;SDS011;7750;48.796;9.026;2023-11-21T17:16:24;7.50;;;5.77;;
15297;SDS011;7750;48.796;9.026;2023-11-21T17:21:24;6.90;;;5.63;;
15297;SDS011;7750;48.796;9.026;2023-11-21T17:26:25;7.73;;;6.57;;
15297;SDS011;7750;48.796;9.026;2023-11-21T17:31:25;8.20;;;6.70;;
15297;SDS011;7750;48.796;9.026;2023-11-21T17:36:26;9.77;;;7.20;;
15297;SDS011;7750;48.796;9.026;2023-11-21T17:41:27;8.70;;;7.17;;
15297;SDS011;7750;48.796;9.026;2023-11-21T17:46:28;10.03;;;7.40;;
15297;SDS011;7750;48.796;9.026;2023-11-21T17:51:28;9.10;;;6.67;;
15297;SDS011;7750;48.796;9.026;2023-11-21T17:56:30;8.20;;;6.60;;
15297;SDS011;7750;48.796;9.026;2023-11-21T18:01:35;7.20;;;6.43;;
15297;SDS011;7750;48.796;9.026;2023-11-21T18:06:39;9.70;;;7.10;;
15297;SDS011;7750;48.796;9.026;2023-11-21T18:11:42;10.33;;;7.20;;
15297;SDS011;7750;48.796;9.026;2023-11-21T18:16:42;9.63;;;7.07;;
15297;SDS011;7750;48.796;9.026;2023-11-21T18:21:43;16.50;;;8.93;;
15297;SDS011;7750;48.796;9.026;2023-11-21T18:26:44;9.30;;;6.43;;
15297;SDS011;7750;48.796;9.026;2023-11-21T18:31:46;8.47;;;5.87;;
15297;SDS011;7750;48.796;9.026;2023-11-21T18:36:47;8.67;;;6.43;;
15297;SDS011;7750;48.796;9.026;2023-11-21T18:41:48;9.13;;;7.47;;
15297;SDS011;7750;48.796;9.026;2023-11-21T18:46:48;7.50;;;6.23;;
15297;SDS011;7750;48.796;9.026;2023-11-21T18:51:49;8.33;;;7.10;;
15297;SDS011;7750;48.796;9.026;2023-11-21T18:56:51;7.60;;;5.97;;
15297;SDS011;7750;48.796;9.026;2023-11-21T19:01:52;7.90;;;6.17;;
15297;SDS011;7750;48.796;9.026;2023-11-21T19:06:53;7.00;;;5.97;;
15297;SDS011;7750;48.796;9.026;2023-11-21T19:11:59;8.97;;;6.13;;
15297;SDS011;7750;48.796;9.026;2023-11-21T19:17:00;13.13;;;8.10;;
15297;SDS011;7750;48.796;9.026;2023-11-21T19:22:00;8.00;;;6.50;;
15297;SDS011;7750;48.796;9.026;2023-11-21T19:27:02;8.30;;;7.40;;
15297;SDS011;7750;48.796;9.026;2023-11-21T19:32:05;10.47;;;7.93;;
15297;SDS011;7750;48.796;9.026;2023-11-21T19:37:06;17.97;;;7.73;;
15297;SDS011;7750;48.796;9.026;2023-11-21T19:42:06;9.40;;;6.63;;
15297;SDS011;7750;48.796;9.026;2023-11-21T19:47:07;11.50;;;6.13;;
15297;SDS011;7750;48.796;9.026;2023-11-21T19:52:10;14.13;;;10.67;;
15297;SDS011;7750;48.796;9.026;2023-11-21T19:57:10;12.27;;;7.17;;
15297;SDS011;7750;48.796;9.026;2023-11-21T20:02:14;7.20;;;5.50;;
15297;SDS011;7750;48.796;9.026;2023-11-21T20:07:14;9.63;;;6.73;;
15297;SDS011;7750;48.796;9.026;2023-11-21T20:12:17;15.67;;;6.70;;
15297;SDS011;7750;48.796;9.026;2023-11-21T20:17:18;13.03;;;7.37;;
15297;SDS011;7750;48.796;9.026;2023-11-21T20:22:19;8.57;;;5.73;;
15297;SDS011;7750;48.796;9.026;2023-11-21T20:27:21;9.70;;;5.90;;
15297;SDS011;7750;48.796;9.026;2023-11-21T20:32:23;10.97;;;6.73;;
15297;SDS011;7750;48.796;9.026;2023-11-21T20:37:24;10.47;;;7.40;;
15297;SDS011;7750;48.796;9.026;2023-11-21T20:42:25;11.00;;;6.90;;
15297;SDS011;7750;48.796;9.026;2023-11-21T20:47:25;9.67;;;7.10;;
15297;SDS011;7750;48.796;9.026;2023-11-21T20:52:26;10.90;;;7.33;;
15297;SDS011;7750;48.796;9.026;2023-11-21T20:57:27;9.53;;;7.13;;
15297;SDS011;7750;48.796;9.026;2023-11-21T21:02:28;13.50;;;7.50;;
15297;SDS011;7750;48.796;9.026;2023-11-21T21:07:29;13.63;;;9.17;;
15297;SDS011;7750;48.796;9.026;2023-11-21T21:12:29;13.03;;;7.97;;
15297;SDS011;7750;48.796;9.026;2023-11-21T21:17:30;16.20;;;9.33;;
15297;SDS011;7750;48.796;9.026;2023-11-21T21:22:31;12.20;;;8.00;;
15297;SDS011;7750;48.796;9.026;2023-11-21T21:27:31;15.37;;;8.20;;
15297;SDS011;7750;48.796;9.026;2023-11-21T21:32:32;11.90;;;8.10;;
15297;SDS011;7750;48.796;9.026;2023-11-21T21:37:34;12.90;;;7.73;;
15297;SDS011;7750;48.796;9.026;2023-11-21T21:42:35;14.40;;;7.73;;
15297;SDS011;7750;48.796;9.026;2023-11-21T21:47:35;10.70;;;7.50;;
15297;SDS011;7750;48.796;9.026;2023-11-21T21:52:36;16.13;;;8.50;;
15297;SDS011;7750;48.796;9.026;2023-11-21T21:57:41;10.43;;;8.23;;
15297;SDS011;7750;48.796;9.026;2023-11-21T22:02:42;11.97;;;7.80;;
15297;SDS011;7750;48.796;9.026;2023-11-21T22:07:43;13.27;;;8.63;;
15297;SDS011;7750;48.796;9.026;2023-11-21T22:12:44;11.50;;;8.20;;
15297;SDS011;7750;48.796;9.026;2023-11-21T22:17:44;12.40;;;7.70;;
15297;SDS011;7750;48.796;9.026;2023-11-21T22:22:45;11.60;;;7.60;;
15297;SDS011;7750;48.796;9.026;2023-11-21T22:27:46;13.27;;;8.87;;
15297;SDS011;7750;48.796;9.026;2023-11-21T22:32:48;11.03;;;7.77;;
15297;SDS011;7750;48.796;9.026;2023-11-21T22:37:50;11.47;;;8.77;;
15297;SDS011;7750;48.796;9.026;2023-11-21T22:42:51;14.90;;;10.30;;
15297;SDS011;7750;48.796;9.026;2023-11-21T22:47:52;17.57;;;10.60;;
15297;SDS011;7750;48.796;9.026;2023-11-21T22:52:53;13.13;;;9.43;;
15297;SDS011;7750;48.796;9.026;2023-11-21T22:57:53;13.67;;;10.47;;
15297;SDS011;7750;48.796;9.026;2023-11-21T23:02:54;13.80;;;9.67;;
15297;SDS011;7750;48.796;9.026;2023-11-21T23:07:55;12.47;;;8.50;;
15297;SDS011;7750;48.796;9.026;2023-11-21T23:12:56;13.90;;;9.47;;
15297;SDS011;7750;48.796;9.026;2023-11-21T23:17:57;13.00;;;9.00;;
15297;SDS011;7750;48.796;9.026;2023-11-21T23:22:58;17.07;;;9.40;;
15297;SDS011;7750;48.796;9.026;2023-11-21T23:27:58;12.40;;;8.47;;
15297;SDS011;7750;48.796;9.026;2023-11-21T23:33:01;10.00;;;8.00;;
15297;SDS011;7750;48.796;9.026;2023-11-21T23:38:02;15.17;;;9.10;;
15297;SDS011;7750;48.796;9.026;2023-11-21T23:43:04;12.23;;;8.47;;
15297;SDS011;7750;48.796;9.026;2023-11-21T23:48:04;10.53;;;8.47;;
15297;SDS011;7750;48.796;9.026;2023-11-21T23:53:06;11.80;;;9.57;;
15297;SDS011;7750;48.796;9.026;2023-11-21T23:58:07;12.10;;;8.90;;
